createdAt,value
2024-03-15T00:02:05.943Z,7.30
2024-03-15T00:04:35.148Z,7.80
2024-03-15T00:07:03.790Z,7.47
2024-03-15T00:09:32.117Z,7.83
2024-03-15T00:12:01.386Z,7.87
2024-03-15T00:14:29.767Z,7.80
2024-03-15T00:16:58.117Z,8.27
2024-03-15T00:19:26.831Z,7.70
2024-03-15T00:21:55.047Z,8.37
2024-03-15T00:24:23.772Z,8.37
2024-03-15T00:26:52.008Z,8.57
2024-03-15T00:29:20.810Z,8.80
2024-03-15T00:31:48.970Z,8.60
2024-03-15T00:34:17.227Z,8.20
2024-03-15T00:36:46.530Z,8.60
2024-03-15T00:39:16.314Z,8.73
2024-03-15T00:41:44.646Z,8.97
2024-03-15T00:44:12.991Z,8.70
2024-03-15T00:46:41.277Z,8.47
2024-03-15T00:49:11.978Z,8.10
2024-03-15T00:51:40.325Z,7.90
2024-03-15T00:54:08.664Z,8.77
2024-03-15T00:56:37.757Z,8.17
2024-03-15T00:59:06.188Z,8.10
2024-03-15T01:01:34.487Z,8.30
2024-03-15T01:04:05.173Z,7.70
2024-03-15T01:06:33.451Z,7.30
2024-03-15T01:09:01.754Z,10.07
2024-03-15T01:11:30.768Z,9.63
2024-03-15T01:14:00.835Z,15.30
2024-03-15T01:16:29.208Z,12.00
2024-03-15T01:18:58.148Z,12.63
2024-03-15T01:21:27.832Z,11.73
2024-03-15T01:23:56.493Z,14.90
2024-03-15T01:26:24.947Z,7.37
2024-03-15T01:28:53.365Z,6.67
2024-03-15T01:31:21.639Z,7.20
2024-03-15T01:33:49.955Z,6.50
2024-03-15T01:36:19.131Z,7.90
2024-03-15T01:38:47.511Z,6.00
2024-03-15T01:41:15.829Z,6.63
2024-03-15T01:43:49.438Z,7.07
2024-03-15T01:46:17.789Z,7.13
2024-03-15T01:48:46.504Z,7.17
2024-03-15T01:51:14.840Z,6.43
2024-03-15T01:53:44.974Z,6.93
2024-03-15T01:56:14.014Z,7.00
2024-03-15T01:58:42.239Z,6.87
2024-03-15T02:01:12.944Z,6.73
2024-03-15T02:03:41.508Z,7.67
2024-03-15T02:06:10.260Z,6.97
2024-03-15T02:08:39.059Z,7.13
2024-03-15T02:11:07.394Z,7.10
2024-03-15T02:13:35.721Z,7.50
2024-03-15T02:16:04.031Z,6.97
2024-03-15T02:18:33.324Z,8.00
2024-03-15T02:21:01.815Z,6.97
2024-03-15T02:23:30.897Z,7.67
2024-03-15T02:25:59.267Z,7.83
2024-03-15T02:28:27.594Z,7.83
2024-03-15T02:30:56.445Z,7.77
2024-03-15T02:33:24.736Z,7.60
2024-03-15T02:35:52.966Z,6.80
2024-03-15T02:38:21.252Z,7.10
2024-03-15T02:40:49.504Z,7.17
2024-03-15T02:43:18.940Z,7.03
2024-03-15T02:45:47.288Z,7.77
2024-03-15T02:48:15.812Z,6.93
2024-03-15T02:50:44.224Z,7.83
2024-03-15T02:53:12.977Z,7.50
2024-03-15T02:55:41.348Z,7.67
2024-03-15T02:58:10.821Z,9.40
2024-03-15T03:00:39.166Z,9.03
2024-03-15T03:03:07.479Z,8.27
2024-03-15T03:05:35.855Z,7.70
2024-03-15T03:08:04.686Z,8.13
2024-03-15T03:10:32.946Z,8.10
2024-03-15T03:13:01.859Z,8.20
2024-03-15T03:15:30.583Z,8.10
2024-03-15T03:17:59.976Z,8.70
2024-03-15T03:20:29.575Z,7.80
2024-03-15T03:22:58.191Z,8.17
2024-03-15T03:25:26.633Z,8.50
2024-03-15T03:27:54.900Z,8.27
2024-03-15T03:30:23.222Z,8.90
2024-03-15T03:32:53.248Z,8.67
2024-03-15T03:35:21.621Z,8.10
2024-03-15T03:37:49.978Z,9.20
2024-03-15T03:40:18.306Z,9.23
2024-03-15T03:42:48.299Z,8.63
2024-03-15T03:45:20.511Z,8.83
2024-03-15T03:47:49.924Z,8.90
2024-03-15T03:50:18.888Z,8.87
2024-03-15T03:52:48.284Z,8.37
2024-03-15T03:55:16.705Z,8.77
2024-03-15T03:57:46.283Z,8.33
2024-03-15T04:00:17.140Z,8.70
2024-03-15T04:02:46.949Z,8.40
2024-03-15T04:05:15.763Z,8.37
2024-03-15T04:07:46.134Z,9.03
2024-03-15T04:10:15.062Z,9.53
2024-03-15T04:12:44.484Z,9.87
2024-03-15T04:17:45.531Z,10.17
2024-03-15T04:20:17.504Z,9.60
2024-03-15T04:22:47.248Z,9.37
2024-03-15T04:25:18.121Z,9.70
2024-03-15T04:27:47.792Z,10.77
2024-03-15T04:30:17.565Z,11.50
2024-03-15T04:32:47.757Z,9.80
2024-03-15T04:35:17.501Z,11.27
2024-03-15T04:37:46.201Z,9.67
2024-03-15T04:40:16.465Z,11.50
2024-03-15T04:42:45.820Z,9.63
2024-03-15T04:45:16.197Z,9.77
2024-03-15T04:47:45.673Z,9.43
2024-03-15T04:50:17.112Z,8.77
2024-03-15T04:52:46.048Z,9.33
2024-03-15T04:55:16.577Z,10.00
2024-03-15T04:57:44.986Z,10.17
2024-03-15T05:00:20.809Z,9.47
2024-03-15T05:02:50.580Z,9.47
2024-03-15T05:05:19.919Z,9.00
2024-03-15T05:07:49.109Z,15.33
2024-03-15T05:10:18.974Z,15.40
2024-03-15T05:12:49.844Z,13.00
2024-03-15T05:15:18.364Z,17.53
2024-03-15T05:17:48.333Z,12.93
2024-03-15T05:20:16.848Z,13.47
2024-03-15T05:22:46.872Z,12.00
2024-03-15T05:25:17.540Z,12.57
2024-03-15T05:27:47.168Z,10.80
2024-03-15T05:30:18.720Z,12.13
2024-03-15T05:32:47.309Z,12.73
2024-03-15T05:35:20.332Z,12.37
2024-03-15T05:37:48.720Z,11.57
2024-03-15T05:40:17.068Z,13.17
2024-03-15T05:42:45.319Z,14.13
2024-03-15T05:45:14.620Z,13.17
2024-03-15T05:47:43.103Z,13.03
2024-03-15T05:50:12.434Z,11.70
2024-03-15T05:52:41.741Z,11.57
2024-03-15T05:55:10.414Z,10.67
2024-03-15T05:57:39.055Z,10.13
2024-03-15T06:00:17.048Z,10.30
2024-03-15T06:02:46.323Z,8.77
2024-03-15T06:05:14.692Z,9.07
2024-03-15T06:07:43.474Z,8.27
2024-03-15T06:10:11.820Z,8.43
2024-03-15T06:12:40.178Z,8.47
2024-03-15T06:15:10.551Z,9.50
2024-03-15T06:17:41.269Z,11.13
2024-03-15T06:20:11.796Z,11.10
2024-03-15T06:22:40.604Z,11.43
2024-03-15T06:25:09.395Z,12.93
2024-03-15T06:27:41.675Z,12.83
2024-03-15T06:30:11.407Z,12.90
2024-03-15T06:32:41.332Z,11.87
2024-03-15T06:35:28.889Z,9.97
2024-03-15T06:38:08.966Z,9.77
2024-03-15T06:40:57.580Z,9.33
2024-03-15T06:43:41.765Z,9.20
2024-03-15T06:46:22.079Z,9.03
2024-03-15T06:49:01.205Z,7.73
2024-03-15T06:51:47.662Z,7.53
2024-03-15T06:54:16.744Z,7.23
2024-03-15T06:56:45.494Z,7.27
2024-03-15T06:59:14.565Z,7.23
2024-03-15T07:01:42.977Z,7.87
2024-03-15T07:04:11.277Z,7.50
2024-03-15T07:06:39.546Z,7.07
2024-03-15T07:09:16.236Z,7.53
2024-03-15T07:11:48.541Z,6.80
2024-03-15T07:14:17.129Z,6.63
2024-03-15T07:16:45.318Z,6.27
2024-03-15T07:19:14.771Z,6.60
2024-03-15T07:21:44.608Z,7.03
2024-03-15T07:24:13.075Z,6.83
2024-03-15T07:26:42.218Z,8.37
2024-03-15T07:29:10.913Z,7.27
2024-03-15T07:31:39.273Z,9.07
2024-03-15T07:34:09.348Z,7.23
2024-03-15T07:36:40.169Z,8.33
2024-03-15T07:39:09.577Z,8.63
2024-03-15T07:41:40.219Z,8.13
2024-03-15T07:44:09.987Z,8.40
2024-03-15T07:46:38.628Z,8.10
2024-03-15T07:49:10.267Z,8.40
2024-03-15T07:51:38.372Z,8.30
2024-03-15T07:54:06.897Z,7.33
2024-03-15T07:56:35.147Z,9.80
2024-03-15T07:59:04.578Z,17.83
2024-03-15T08:01:35.049Z,10.00
2024-03-15T08:04:04.299Z,8.47
2024-03-15T08:06:34.888Z,9.30
2024-03-15T08:09:06.283Z,9.10
2024-03-15T08:11:36.180Z,9.20
2024-03-15T08:14:07.194Z,9.13
2024-03-15T08:16:41.388Z,9.50
2024-03-15T08:19:12.373Z,9.27
2024-03-15T08:21:41.429Z,11.00
2024-03-15T08:24:12.097Z,9.77
2024-03-15T08:26:40.867Z,9.40
2024-03-15T08:29:10.338Z,9.03
2024-03-15T08:31:40.368Z,9.63
2024-03-15T08:34:09.119Z,9.47
2024-03-15T08:36:38.898Z,9.20
2024-03-15T08:39:14.115Z,9.77
2024-03-15T08:41:44.331Z,10.33
2024-03-15T08:44:13.072Z,10.50
2024-03-15T08:46:42.050Z,8.93
2024-03-15T08:49:12.555Z,9.10
2024-03-15T08:51:42.814Z,8.37
2024-03-15T08:54:11.654Z,9.37
2024-03-15T08:56:40.937Z,8.87
2024-03-15T08:59:09.281Z,8.27
2024-03-15T09:01:38.063Z,9.23
2024-03-15T09:04:07.222Z,8.97
2024-03-15T09:06:36.110Z,8.93
2024-03-15T09:09:09.911Z,8.13
2024-03-15T09:11:38.477Z,8.90
2024-03-15T09:14:07.758Z,9.23
2024-03-15T09:16:37.108Z,8.93
2024-03-15T09:19:07.640Z,9.80
2024-03-15T09:21:36.997Z,7.70
2024-03-15T09:24:06.254Z,7.53
2024-03-15T09:26:34.785Z,7.20
2024-03-15T09:29:05.609Z,7.10
2024-03-15T09:31:52.608Z,8.00
2024-03-15T09:34:25.117Z,7.67
2024-03-15T09:36:54.062Z,5.80
2024-03-15T09:39:24.298Z,6.03
2024-03-15T09:41:52.755Z,7.20
2024-03-15T09:44:21.188Z,6.80
2024-03-15T09:46:49.502Z,6.93
2024-03-15T09:49:18.652Z,6.03
2024-03-15T09:51:48.324Z,6.53
2024-03-15T09:54:17.002Z,7.05
2024-03-15T09:56:45.335Z,6.63
2024-03-15T09:59:15.459Z,6.53
2024-03-15T10:01:44.109Z,6.35
2024-03-15T10:04:12.521Z,5.65
2024-03-15T10:06:40.909Z,5.10
2024-03-15T10:09:14.111Z,6.32
2024-03-15T10:11:43.478Z,6.22
2024-03-15T10:14:11.936Z,6.30
2024-03-15T10:16:40.311Z,5.03
2024-03-15T10:19:09.421Z,5.43
2024-03-15T10:21:39.847Z,5.20
2024-03-15T10:24:11.999Z,5.70
2024-03-15T10:26:41.785Z,5.10
2024-03-15T10:29:11.740Z,5.38
2024-03-15T10:31:40.125Z,5.30
2024-03-15T10:34:09.163Z,5.57
2024-03-15T10:36:37.939Z,5.75
2024-03-15T10:39:06.301Z,6.70
2024-03-15T10:41:34.702Z,6.10
2024-03-15T10:44:03.037Z,5.70
2024-03-15T10:46:32.294Z,5.90
2024-03-15T10:49:01.153Z,5.88
2024-03-15T10:51:29.539Z,5.50
2024-03-15T10:53:57.822Z,5.07
2024-03-15T10:56:26.060Z,6.25
2024-03-15T10:58:54.229Z,5.50
2024-03-15T11:01:24.884Z,5.43
2024-03-15T11:03:53.529Z,5.80
2024-03-15T11:06:21.886Z,6.13
2024-03-15T11:08:50.173Z,5.78
2024-03-15T11:11:19.441Z,5.95
2024-03-15T11:13:49.107Z,5.97
2024-03-15T11:16:21.327Z,5.72
2024-03-15T11:18:50.591Z,5.55
2024-03-15T11:21:22.934Z,6.03
2024-03-15T11:23:51.910Z,5.85
2024-03-15T11:26:21.643Z,5.28
2024-03-15T11:28:57.564Z,5.25
2024-03-15T11:31:29.667Z,5.28
2024-03-15T11:34:00.955Z,5.20
2024-03-15T11:36:30.757Z,4.95
2024-03-15T11:38:59.109Z,5.00
2024-03-15T11:41:27.469Z,4.80
2024-03-15T11:43:56.590Z,4.75
2024-03-15T11:46:25.321Z,4.85
2024-03-15T11:48:53.602Z,5.25
2024-03-15T11:51:21.896Z,5.00
2024-03-15T11:53:50.168Z,5.03
2024-03-15T11:56:18.987Z,4.88
2024-03-15T11:58:47.208Z,4.70
2024-03-15T12:01:16.068Z,4.50
2024-03-15T12:03:45.898Z,4.72
2024-03-15T12:06:14.132Z,5.25
2024-03-15T12:08:42.592Z,5.25
2024-03-15T12:11:11.099Z,4.72
2024-03-15T12:13:39.373Z,4.65
2024-03-15T12:16:08.182Z,4.60
2024-03-15T12:18:37.588Z,4.45
2024-03-15T12:21:06.187Z,4.63
2024-03-15T12:23:37.650Z,4.13
2024-03-15T12:26:06.189Z,4.35
2024-03-15T12:28:34.534Z,4.32
2024-03-15T12:31:02.936Z,4.40
2024-03-15T12:33:31.363Z,3.75
2024-03-15T12:36:02.630Z,3.75
2024-03-15T12:38:31.638Z,3.22
2024-03-15T12:40:59.915Z,4.13
2024-03-15T12:43:30.278Z,3.88
2024-03-15T12:45:58.677Z,4.25
2024-03-15T12:48:27.034Z,4.30
2024-03-15T12:50:55.413Z,4.43
2024-03-15T12:53:23.787Z,4.20
2024-03-15T12:55:52.114Z,4.25
2024-03-15T12:58:20.418Z,4.50
2024-03-15T13:00:49.386Z,4.50
2024-03-15T13:03:19.745Z,3.97
2024-03-15T13:05:48.588Z,3.60
2024-03-15T13:08:16.988Z,4.28
2024-03-15T13:10:47.019Z,7.22
2024-03-15T13:13:15.370Z,4.40
2024-03-15T13:15:48.541Z,5.28
2024-03-15T13:18:18.691Z,4.65
2024-03-15T13:20:47.517Z,4.05
2024-03-15T13:23:16.014Z,4.85
2024-03-15T13:25:44.287Z,3.78
2024-03-15T13:28:12.720Z,4.40
2024-03-15T13:30:41.628Z,5.00
2024-03-15T13:33:11.461Z,4.55
2024-03-15T13:35:43.229Z,4.70
2024-03-15T13:38:15.797Z,5.15
2024-03-15T13:40:45.036Z,4.90
2024-03-15T13:43:14.277Z,5.20
2024-03-15T13:45:42.675Z,5.60
2024-03-15T13:48:29.671Z,4.75
2024-03-15T13:50:58.427Z,3.95
2024-03-15T13:53:26.684Z,4.88
2024-03-15T13:55:54.987Z,5.15
2024-03-15T13:58:23.282Z,5.10
2024-03-15T14:00:51.948Z,5.30
2024-03-15T14:03:20.570Z,4.85
2024-03-15T14:05:48.981Z,4.78
2024-03-15T14:08:21.209Z,4.57
2024-03-15T14:10:49.938Z,4.90
2024-03-15T14:13:19.808Z,4.25
2024-03-15T14:15:49.639Z,4.38
2024-03-15T14:18:19.835Z,5.82
2024-03-15T14:20:49.075Z,6.45
2024-03-15T14:23:17.665Z,5.40
2024-03-15T14:25:46.408Z,5.80
2024-03-15T14:28:14.988Z,5.00
2024-03-15T14:30:43.450Z,6.07
2024-03-15T14:33:12.194Z,6.07
2024-03-15T14:35:40.826Z,6.57
2024-03-15T14:38:11.301Z,8.05
2024-03-15T14:40:41.284Z,5.57
2024-03-15T14:43:12.958Z,4.88
2024-03-15T14:45:41.937Z,5.65
2024-03-15T14:48:15.976Z,5.65
2024-03-15T14:50:45.584Z,4.93
2024-03-15T14:53:17.079Z,5.28
2024-03-15T14:55:46.735Z,4.72
2024-03-15T14:58:16.228Z,4.53
2024-03-15T15:00:49.666Z,5.72
2024-03-15T15:03:18.964Z,5.05
2024-03-15T15:05:48.186Z,5.53
2024-03-15T15:08:16.533Z,4.90
2024-03-15T15:10:44.766Z,5.53
2024-03-15T15:13:13.404Z,6.18
2024-03-15T15:15:43.297Z,5.07
2024-03-15T15:18:13.180Z,5.30
2024-03-15T15:20:42.973Z,6.22
2024-03-15T15:23:11.966Z,5.20
2024-03-15T15:25:41.403Z,5.18
2024-03-15T15:28:09.657Z,5.60
2024-03-15T15:30:38.643Z,5.70
2024-03-15T15:33:09.387Z,5.53
2024-03-15T15:35:38.589Z,5.25
2024-03-15T15:38:08.813Z,5.78
2024-03-15T15:40:39.066Z,4.97
2024-03-15T15:43:07.913Z,6.45
2024-03-15T15:45:36.821Z,5.37
2024-03-15T15:48:08.284Z,5.07
2024-03-15T15:50:38.985Z,5.10
2024-03-15T15:53:07.403Z,5.22
2024-03-15T15:55:37.314Z,6.57
2024-03-15T15:58:06.261Z,7.53
2024-03-15T16:00:35.047Z,7.97
2024-03-15T16:03:04.909Z,8.10
2024-03-15T16:05:33.839Z,7.77
2024-03-15T16:08:04.444Z,7.90
2024-03-15T16:10:33.218Z,7.23
2024-03-15T16:13:02.979Z,9.13
2024-03-15T16:15:31.746Z,9.37
2024-03-15T16:18:01.148Z,7.57
2024-03-15T16:20:29.787Z,9.30
2024-03-15T16:22:58.608Z,8.30
2024-03-15T16:25:27.069Z,7.80
2024-03-15T16:27:55.515Z,11.87
2024-03-15T16:30:23.866Z,7.90
2024-03-15T16:33:00.545Z,6.50
2024-03-15T16:35:31.515Z,6.23
2024-03-15T16:38:00.090Z,6.88
2024-03-15T16:40:28.968Z,7.00
2024-03-15T16:42:58.885Z,6.60
2024-03-15T16:45:27.477Z,6.37
2024-03-15T16:47:55.915Z,7.73
2024-03-15T16:50:26.428Z,8.73
2024-03-15T16:52:55.176Z,7.20
2024-03-15T16:55:25.076Z,7.87
2024-03-15T16:57:53.510Z,7.87
2024-03-15T17:00:22.905Z,8.13
2024-03-15T17:02:51.464Z,8.40
2024-03-15T17:05:20.229Z,8.33
2024-03-15T17:07:50.201Z,7.20
2024-03-15T17:10:19.211Z,6.63
2024-03-15T17:12:47.500Z,6.80
2024-03-15T17:15:15.871Z,7.20
2024-03-15T17:17:44.794Z,8.20
2024-03-15T17:20:13.585Z,7.37
2024-03-15T17:22:41.738Z,8.23
2024-03-15T17:25:10.422Z,6.83
2024-03-15T17:27:39.027Z,7.97
2024-03-15T17:30:11.405Z,7.13
2024-03-15T17:32:42.028Z,8.10
2024-03-15T17:35:11.080Z,8.73
2024-03-15T17:37:39.477Z,7.87
2024-03-15T17:40:10.965Z,6.43
2024-03-15T17:42:40.234Z,7.23
2024-03-15T17:45:11.698Z,6.87
2024-03-15T17:47:40.120Z,6.73
2024-03-15T17:50:09.430Z,6.53
2024-03-15T17:52:39.561Z,6.70
2024-03-15T17:55:09.584Z,6.00
2024-03-15T17:57:38.570Z,6.30
2024-03-15T18:00:13.982Z,6.70
2024-03-15T18:02:42.853Z,8.50
2024-03-15T18:05:12.379Z,8.73
2024-03-15T18:07:40.231Z,6.30
2024-03-15T18:10:10.984Z,5.40
2024-03-15T18:12:40.313Z,5.33
2024-03-15T18:15:10.177Z,7.07
2024-03-15T18:17:38.887Z,6.67
2024-03-15T18:20:10.376Z,7.20
2024-03-15T18:22:38.761Z,5.90
2024-03-15T18:25:07.096Z,5.90
2024-03-15T18:27:35.830Z,5.53
2024-03-15T18:30:05.001Z,5.90
2024-03-15T18:32:33.671Z,5.40
2024-03-15T18:35:02.196Z,4.90
2024-03-15T18:37:30.511Z,5.10
2024-03-15T18:39:59.453Z,5.77
2024-03-15T18:42:28.249Z,5.63
2024-03-15T18:44:58.276Z,5.03
2024-03-15T18:47:26.720Z,5.50
2024-03-15T18:49:54.948Z,5.30
2024-03-15T18:52:23.239Z,6.33
2024-03-15T18:54:54.817Z,9.63
2024-03-15T18:57:24.652Z,6.70
2024-03-15T18:59:59.047Z,4.00
2024-03-15T19:02:28.823Z,5.13
2024-03-15T19:04:57.153Z,5.47
2024-03-15T19:07:25.552Z,6.43
2024-03-15T19:09:53.998Z,5.53
2024-03-15T19:12:22.544Z,6.80
2024-03-15T19:14:50.894Z,8.93
2024-03-15T19:17:19.209Z,5.67
2024-03-15T19:19:47.587Z,6.67
2024-03-15T19:22:15.943Z,5.53
2024-03-15T19:24:44.442Z,5.20
2024-03-15T19:27:12.921Z,4.93
2024-03-15T19:29:41.127Z,5.30
2024-03-15T19:32:11.841Z,11.13
2024-03-15T19:34:40.564Z,6.50
2024-03-15T19:37:08.727Z,6.03
2024-03-15T19:39:37.221Z,6.03
2024-03-15T19:42:05.677Z,5.17
2024-03-15T19:44:34.441Z,5.07
2024-03-15T19:47:05.106Z,13.10
2024-03-15T19:49:33.794Z,8.53
2024-03-15T19:52:02.123Z,8.73
2024-03-15T19:54:30.765Z,12.10
2024-03-15T19:56:59.181Z,7.17
2024-03-15T19:59:27.577Z,6.57
2024-03-15T20:01:56.342Z,7.50
2024-03-15T20:04:26.204Z,6.00
2024-03-15T20:06:55.785Z,5.23
2024-03-15T20:09:25.983Z,5.23
2024-03-15T20:11:54.430Z,4.43
2024-03-15T20:14:22.698Z,5.93
2024-03-15T20:16:52.211Z,5.07
2024-03-15T20:19:23.885Z,6.37
2024-03-15T20:21:52.224Z,5.67
2024-03-15T20:24:21.260Z,5.03
2024-03-15T20:26:50.136Z,5.53
2024-03-15T20:29:18.615Z,8.40
2024-03-15T20:31:46.922Z,6.60
2024-03-15T20:34:15.552Z,6.57
2024-03-15T20:36:43.984Z,7.37
2024-03-15T20:39:15.285Z,6.27
2024-03-15T20:41:43.604Z,6.57
2024-03-15T20:44:11.789Z,7.50
2024-03-15T20:46:40.194Z,7.03
2024-03-15T20:49:08.625Z,7.47
2024-03-15T20:51:37.038Z,7.70
2024-03-15T20:54:06.128Z,8.30
2024-03-15T20:56:35.114Z,7.97
2024-03-15T20:59:05.655Z,8.03
2024-03-15T21:01:34.451Z,7.40
2024-03-15T21:04:02.826Z,7.73
2024-03-15T21:06:31.734Z,7.63
2024-03-15T21:09:00.373Z,8.90
2024-03-15T21:11:28.761Z,7.47
2024-03-15T21:13:57.214Z,7.33
2024-03-15T21:16:25.474Z,8.17
2024-03-15T21:18:53.803Z,7.37
2024-03-15T21:21:23.178Z,7.63
2024-03-15T21:23:51.934Z,7.87
2024-03-15T21:26:21.386Z,7.13
2024-03-15T21:28:49.601Z,7.60
2024-03-15T21:31:18.198Z,7.00
2024-03-15T21:33:48.333Z,6.73
2024-03-15T21:36:16.768Z,9.53
2024-03-15T21:38:45.039Z,8.00
2024-03-15T21:41:13.788Z,7.40
2024-03-15T21:43:42.055Z,7.57
2024-03-15T21:46:13.434Z,7.03
2024-03-15T21:48:42.737Z,7.57
2024-03-15T21:51:11.188Z,7.60
2024-03-15T21:53:42.641Z,7.53
2024-03-15T21:56:11.571Z,8.37
2024-03-15T21:58:40.361Z,7.67
2024-03-15T22:01:08.685Z,8.33
2024-03-15T22:03:37.788Z,8.57
2024-03-15T22:06:06.838Z,8.10
2024-03-15T22:08:35.384Z,8.83
2024-03-15T22:11:05.194Z,9.07
2024-03-15T22:13:33.904Z,10.00
2024-03-15T22:16:03.216Z,9.77
2024-03-15T22:18:32.402Z,9.27
2024-03-15T22:21:00.652Z,10.23
2024-03-15T22:23:28.880Z,11.20
2024-03-15T22:25:59.728Z,10.10
2024-03-15T22:28:29.821Z,10.30
2024-03-15T22:30:58.212Z,9.97
2024-03-15T22:33:26.479Z,10.60
2024-03-15T22:35:54.767Z,11.07
2024-03-15T22:38:23.267Z,10.70
2024-03-15T22:40:51.875Z,10.77
2024-03-15T22:43:20.108Z,11.03
2024-03-15T22:45:49.668Z,10.23
2024-03-15T22:48:18.424Z,12.30
2024-03-15T22:50:46.641Z,11.03
2024-03-15T22:53:14.973Z,11.17
2024-03-15T22:55:47.195Z,10.87
2024-03-15T22:58:15.555Z,10.63
2024-03-15T23:00:46.583Z,12.00
2024-03-15T23:03:16.308Z,10.83
2024-03-15T23:05:45.471Z,11.70
2024-03-15T23:08:13.899Z,11.13
2024-03-15T23:10:45.271Z,11.23
2024-03-15T23:13:15.647Z,13.07
2024-03-15T23:15:44.184Z,11.43
2024-03-15T23:18:13.057Z,12.07
2024-03-15T23:20:41.679Z,11.17
2024-03-15T23:23:10.642Z,11.90
2024-03-15T23:25:39.086Z,12.00
2024-03-15T23:28:08.097Z,13.37
2024-03-15T23:30:37.092Z,11.07
2024-03-15T23:33:07.813Z,12.33
2024-03-15T23:35:36.926Z,12.23
2024-03-15T23:38:06.861Z,12.57
2024-03-15T23:40:39.151Z,13.00
2024-03-15T23:43:10.117Z,11.97
2024-03-15T23:45:38.960Z,14.53
2024-03-15T23:48:08.203Z,13.30
2024-03-15T23:50:36.904Z,12.97
2024-03-15T23:53:05.388Z,13.57
2024-03-15T23:55:33.625Z,14.50
2024-03-15T23:58:02.023Z,14.10
